sensor_id;sensor_type;location;lat;lon;timestamp;P1;durP1;ratioP1;P2;durP2;ratioP2
19404;SDS011;9838;49.384;8.292;2022-12-22T00:09:10;0.63;;;0.40;;
19404;SDS011;9838;49.384;8.292;2022-12-22T00:19:31;1.07;;;0.67;;
19404;SDS011;9838;49.384;8.292;2022-12-22T00:29:52;1.03;;;0.70;;
19404;SDS011;9838;49.384;8.292;2022-12-22T00:40:16;0.60;;;0.50;;
19404;SDS011;9838;49.384;8.292;2022-12-22T00:50:36;1.03;;;0.60;;
19404;SDS011;9838;49.384;8.292;2022-12-22T01:00:57;0.70;;;0.40;;
19404;SDS011;9838;49.384;8.292;2022-12-22T01:11:17;0.40;;;0.30;;
19404;SDS011;9838;49.384;8.292;2022-12-22T01:21:38;0.60;;;0.50;;
19404;SDS011;9838;49.384;8.292;2022-12-22T01:31:58;2.77;;;0.83;;
19404;SDS011;9838;49.384;8.292;2022-12-22T01:42:18;1.10;;;0.70;;
19404;SDS011;9838;49.384;8.292;2022-12-22T01:52:39;0.53;;;0.40;;
19404;SDS011;9838;49.384;8.292;2022-12-22T02:03:00;1.00;;;0.50;;
19404;SDS011;9838;49.384;8.292;2022-12-22T02:13:36;1.67;;;0.50;;
19404;SDS011;9838;49.384;8.292;2022-12-22T02:34:22;1.20;;;0.80;;
19404;SDS011;9838;49.384;8.292;2022-12-22T02:55:06;0.90;;;0.70;;
19404;SDS011;9838;49.384;8.292;2022-12-22T03:05:26;0.60;;;0.60;;
19404;SDS011;9838;49.384;8.292;2022-12-22T03:15:47;0.90;;;0.70;;
19404;SDS011;9838;49.384;8.292;2022-12-22T03:26:07;1.50;;;0.60;;
19404;SDS011;9838;49.384;8.292;2022-12-22T03:36:09;0.40;;;0.30;;
19404;SDS011;9838;49.384;8.292;2022-12-22T03:46:13;0.60;;;0.40;;
19404;SDS011;9838;49.384;8.292;2022-12-22T03:56:30;0.57;;;0.30;;
19404;SDS011;9838;49.384;8.292;2022-12-22T04:06:32;0.97;;;0.40;;
19404;SDS011;9838;49.384;8.292;2022-12-22T04:16:34;0.63;;;0.43;;
19404;SDS011;9838;49.384;8.292;2022-12-22T04:26:36;0.50;;;0.50;;
19404;SDS011;9838;49.384;8.292;2022-12-22T04:36:37;0.40;;;0.30;;
19404;SDS011;9838;49.384;8.292;2022-12-22T04:46:40;0.30;;;0.30;;
19404;SDS011;9838;49.384;8.292;2022-12-22T04:56:42;2.37;;;0.40;;
19404;SDS011;9838;49.384;8.292;2022-12-22T05:06:44;0.20;;;0.20;;
19404;SDS011;9838;49.384;8.292;2022-12-22T05:16:46;0.33;;;0.33;;
19404;SDS011;9838;49.384;8.292;2022-12-22T05:26:48;0.97;;;0.37;;
19404;SDS011;9838;49.384;8.292;2022-12-22T05:36:50;0.40;;;0.40;;
19404;SDS011;9838;49.384;8.292;2022-12-22T05:46:52;0.20;;;0.20;;
19404;SDS011;9838;49.384;8.292;2022-12-22T05:56:54;1.33;;;0.30;;
19404;SDS011;9838;49.384;8.292;2022-12-22T06:06:56;0.70;;;0.30;;
19404;SDS011;9838;49.384;8.292;2022-12-22T06:16:57;0.40;;;0.30;;
19404;SDS011;9838;49.384;8.292;2022-12-22T06:26:59;0.67;;;0.30;;
19404;SDS011;9838;49.384;8.292;2022-12-22T06:37:01;2.43;;;0.33;;
19404;SDS011;9838;49.384;8.292;2022-12-22T06:47:02;0.20;;;0.20;;
19404;SDS011;9838;49.384;8.292;2022-12-22T06:57:04;0.50;;;0.40;;
19404;SDS011;9838;49.384;8.292;2022-12-22T07:07:06;0.90;;;0.30;;
19404;SDS011;9838;49.384;8.292;2022-12-22T07:17:08;2.23;;;0.40;;
19404;SDS011;9838;49.384;8.292;2022-12-22T07:27:10;1.67;;;0.67;;
19404;SDS011;9838;49.384;8.292;2022-12-22T07:37:12;0.40;;;0.40;;
19404;SDS011;9838;49.384;8.292;2022-12-22T07:47:14;1.70;;;0.57;;
19404;SDS011;9838;49.384;8.292;2022-12-22T07:57:16;1.50;;;0.40;;
19404;SDS011;9838;49.384;8.292;2022-12-22T08:07:19;2.30;;;0.47;;
19404;SDS011;9838;49.384;8.292;2022-12-22T08:17:20;1.20;;;0.73;;
19404;SDS011;9838;49.384;8.292;2022-12-22T08:27:24;3.33;;;0.63;;
19404;SDS011;9838;49.384;8.292;2022-12-22T08:37:28;0.57;;;0.50;;
19404;SDS011;9838;49.384;8.292;2022-12-22T08:47:32;1.17;;;0.57;;
19404;SDS011;9838;49.384;8.292;2022-12-22T08:57:34;0.77;;;0.67;;
19404;SDS011;9838;49.384;8.292;2022-12-22T09:07:36;0.70;;;0.60;;
19404;SDS011;9838;49.384;8.292;2022-12-22T09:17:37;1.23;;;0.83;;
19404;SDS011;9838;49.384;8.292;2022-12-22T09:27:39;3.10;;;0.67;;
19404;SDS011;9838;49.384;8.292;2022-12-22T09:37:41;0.20;;;0.20;;
19404;SDS011;9838;49.384;8.292;2022-12-22T09:47:43;1.83;;;0.50;;
19404;SDS011;9838;49.384;8.292;2022-12-22T09:57:46;0.70;;;0.23;;
19404;SDS011;9838;49.384;8.292;2022-12-22T10:07:48;0.50;;;0.40;;
19404;SDS011;9838;49.384;8.292;2022-12-22T10:17:55;0.60;;;0.40;;
19404;SDS011;9838;49.384;8.292;2022-12-22T10:28:12;0.47;;;0.27;;
19404;SDS011;9838;49.384;8.292;2022-12-22T10:38:18;1.40;;;0.40;;
19404;SDS011;9838;49.384;8.292;2022-12-22T10:48:25;0.20;;;0.20;;
19404;SDS011;9838;49.384;8.292;2022-12-22T10:58:27;0.13;;;0.13;;
19404;SDS011;9838;49.384;8.292;2022-12-22T11:08:28;1.20;;;0.30;;
19404;SDS011;9838;49.384;8.292;2022-12-22T11:18:37;0.33;;;0.20;;
19404;SDS011;9838;49.384;8.292;2022-12-22T11:28:50;0.73;;;0.50;;
19404;SDS011;9838;49.384;8.292;2022-12-22T11:39:14;0.20;;;0.20;;
19404;SDS011;9838;49.384;8.292;2022-12-22T11:49:40;0.10;;;0.10;;
19404;SDS011;9838;49.384;8.292;2022-12-22T12:40:05;0.37;;;0.37;;
19404;SDS011;9838;49.384;8.292;2022-12-22T12:50:30;0.10;;;0.10;;
19404;SDS011;9838;49.384;8.292;2022-12-22T13:10:37;0.40;;;0.20;;
19404;SDS011;9838;49.384;8.292;2022-12-22T13:20:39;0.20;;;0.20;;
19404;SDS011;9838;49.384;8.292;2022-12-22T13:30:46;0.50;;;0.17;;
19404;SDS011;9838;49.384;8.292;2022-12-22T13:40:49;0.10;;;0.10;;
19404;SDS011;9838;49.384;8.292;2022-12-22T13:50:54;0.20;;;0.10;;
19404;SDS011;9838;49.384;8.292;2022-12-22T14:01:16;0.10;;;0.10;;
19404;SDS011;9838;49.384;8.292;2022-12-22T14:11:18;0.20;;;0.20;;
19404;SDS011;9838;49.384;8.292;2022-12-22T14:21:20;0.20;;;0.20;;
19404;SDS011;9838;49.384;8.292;2022-12-22T14:31:22;0.20;;;0.20;;
19404;SDS011;9838;49.384;8.292;2022-12-22T14:51:41;0.57;;;0.40;;
19404;SDS011;9838;49.384;8.292;2022-12-22T15:01:54;0.20;;;0.20;;
19404;SDS011;9838;49.384;8.292;2022-12-22T15:12:08;0.53;;;0.20;;
19404;SDS011;9838;49.384;8.292;2022-12-22T15:22:11;0.60;;;0.33;;
19404;SDS011;9838;49.384;8.292;2022-12-22T15:32:13;2.83;;;0.67;;
19404;SDS011;9838;49.384;8.292;2022-12-22T15:42:14;3.17;;;0.97;;
19404;SDS011;9838;49.384;8.292;2022-12-22T15:52:16;10.87;;;1.67;;
19404;SDS011;9838;49.384;8.292;2022-12-22T16:02:18;3.53;;;0.97;;
19404;SDS011;9838;49.384;8.292;2022-12-22T16:12:20;7.53;;;1.20;;
19404;SDS011;9838;49.384;8.292;2022-12-22T16:22:39;4.17;;;1.10;;
19404;SDS011;9838;49.384;8.292;2022-12-22T16:32:42;5.80;;;1.90;;
19404;SDS011;9838;49.384;8.292;2022-12-22T16:42:48;6.50;;;2.17;;
19404;SDS011;9838;49.384;8.292;2022-12-22T16:52:52;5.93;;;1.87;;
19404;SDS011;9838;49.384;8.292;2022-12-22T17:02:59;2.17;;;1.17;;
19404;SDS011;9838;49.384;8.292;2022-12-22T17:13:03;2.83;;;0.87;;
19404;SDS011;9838;49.384;8.292;2022-12-22T17:23:05;6.60;;;1.20;;
19404;SDS011;9838;49.384;8.292;2022-12-22T17:33:11;2.40;;;1.00;;
19404;SDS011;9838;49.384;8.292;2022-12-22T17:43:14;7.77;;;2.17;;
19404;SDS011;9838;49.384;8.292;2022-12-22T17:53:17;6.17;;;1.43;;
19404;SDS011;9838;49.384;8.292;2022-12-22T18:03:20;3.93;;;1.43;;
19404;SDS011;9838;49.384;8.292;2022-12-22T18:13:22;6.40;;;1.97;;
19404;SDS011;9838;49.384;8.292;2022-12-22T18:23:26;3.50;;;1.10;;
19404;SDS011;9838;49.384;8.292;2022-12-22T18:33:28;6.67;;;1.47;;
19404;SDS011;9838;49.384;8.292;2022-12-22T18:43:30;3.23;;;1.37;;
19404;SDS011;9838;49.384;8.292;2022-12-22T18:53:32;3.00;;;1.33;;
19404;SDS011;9838;49.384;8.292;2022-12-22T19:03:35;3.07;;;1.30;;
19404;SDS011;9838;49.384;8.292;2022-12-22T19:13:38;4.00;;;1.50;;
19404;SDS011;9838;49.384;8.292;2022-12-22T19:23:40;6.00;;;0.93;;
19404;SDS011;9838;49.384;8.292;2022-12-22T19:33:42;2.67;;;1.17;;
19404;SDS011;9838;49.384;8.292;2022-12-22T19:43:44;2.33;;;0.97;;
19404;SDS011;9838;49.384;8.292;2022-12-22T19:53:49;2.03;;;0.70;;
19404;SDS011;9838;49.384;8.292;2022-12-22T20:03:51;2.80;;;0.93;;
19404;SDS011;9838;49.384;8.292;2022-12-22T20:13:52;1.30;;;0.80;;
19404;SDS011;9838;49.384;8.292;2022-12-22T20:23:55;2.80;;;1.07;;
19404;SDS011;9838;49.384;8.292;2022-12-22T20:45:17;3.83;;;1.67;;
19404;SDS011;9838;49.384;8.292;2022-12-22T20:55:23;1.33;;;0.63;;
19404;SDS011;9838;49.384;8.292;2022-12-22T21:05:25;1.10;;;0.50;;
19404;SDS011;9838;49.384;8.292;2022-12-22T21:15:27;2.10;;;1.00;;
19404;SDS011;9838;49.384;8.292;2022-12-22T21:25:29;2.47;;;0.90;;
19404;SDS011;9838;49.384;8.292;2022-12-22T21:35:34;1.97;;;1.00;;
19404;SDS011;9838;49.384;8.292;2022-12-22T21:45:36;1.23;;;0.60;;
19404;SDS011;9838;49.384;8.292;2022-12-22T21:55:40;1.70;;;0.60;;
19404;SDS011;9838;49.384;8.292;2022-12-22T22:05:42;1.37;;;0.93;;
19404;SDS011;9838;49.384;8.292;2022-12-22T22:15:44;0.53;;;0.40;;
19404;SDS011;9838;49.384;8.292;2022-12-22T22:25:46;1.17;;;0.50;;
19404;SDS011;9838;49.384;8.292;2022-12-22T22:35:48;1.10;;;0.47;;
19404;SDS011;9838;49.384;8.292;2022-12-22T22:45:53;1.97;;;0.97;;
19404;SDS011;9838;49.384;8.292;2022-12-22T22:55:59;1.23;;;0.67;;
19404;SDS011;9838;49.384;8.292;2022-12-22T23:06:02;0.90;;;0.63;;
19404;SDS011;9838;49.384;8.292;2022-12-22T23:16:04;0.80;;;0.63;;
19404;SDS011;9838;49.384;8.292;2022-12-22T23:26:09;1.03;;;0.40;;
19404;SDS011;9838;49.384;8.292;2022-12-22T23:36:11;1.63;;;0.60;;
19404;SDS011;9838;49.384;8.292;2022-12-22T23:46:13;0.70;;;0.40;;
19404;SDS011;9838;49.384;8.292;2022-12-22T23:56:15;0.53;;;0.30;;
